Bookmark and Share
Track history (hours):
 

Drifting buoy 46658

Last reported at 2012-Jun-15 00:54 UTC. Time now 2014-Apr-20 19:04 UTC.
Position N 55°08' W 150°28'.
Warning: this ship's position is years out of date!

Barometer 1011.3 mb
Water temperature 8.5 ° C

NotesDate/timePositionNaut miles runAvg speedWind from/ knotsBaromVisibWave heightAir tempDewpointWater temp
2012-Jun-15 00:54N 55°08' W 150°28'0 0.0 1011.3 8.5
2012-Jun-14 09:55N 55°08' W 150°28'0 0.0 1014.5 8.2
2012-Jun-14 01:54N 55°08' W 150°28'0 0.0 1014.8 8.3
2012-Jun-13 10:55N 55°08' W 150°28'0 0.0 1017.0 8.2
2012-Jun-13 07:55N 55°08' W 150°28'0 0.0 1017.3 8.3
2012-Jun-13 06:55N 55°08' W 150°28'1 0.2 1017.4 8.3
2012-Jun-13 02:55N 55°08' W 150°29'0 0.0 1017.9 8.4
2012-Jun-13 01:55N 55°08' W 150°29'5285.0 1018.0 8.4
2012-Jun-13 01:54N 55°06' W 150°37'0 0.0 1018.0 8.4
2012-Jun-13 00:54N 55°06' W 150°37'0 0.0 1018.1 8.4
2012-Jun-12 23:55N 55°06' W 150°37'0 0.0 1018.2 8.4
2012-Jun-12 23:54N 55°06' W 150°37'0 0.0 1018.2 8.4
2012-Jun-12 22:55N 55°06' W 150°37'0 0.0 1018.2 8.3
2012-Jun-12 21:55N 55°06' W 150°37'0 0.0 1018.2 8.2
2012-Jun-12 21:54N 55°06' W 150°37'0 0.0 1018.2 8.2
2012-Jun-12 20:55N 55°06' W 150°37'0 0.0 1018.0 8.2
2012-Jun-12 18:54N 55°06' W 150°37'0 0.0 1017.8 8.2
2012-Jun-12 17:54N 55°06' W 150°37'1 0.9 1017.6 8.2
2012-Jun-12 16:54N 55°07' W 150°38'0 0.0 1017.5 8.2
2012-Jun-12 15:54N 55°07' W 150°38'0 0.0 1017.4 8.1
2012-Jun-12 14:55N 55°07' W 150°38'0 0.0 1017.3 8.1
2012-Jun-12 14:54N 55°07' W 150°38'0 0.0 1017.3 8.1
2012-Jun-12 10:54N 55°07' W 150°38'4 2.2 1017.2 8.2
2012-Jun-12 08:54N 55°05' W 150°45'0 0.0 1016.9 8.2
2012-Jun-12 07:55N 55°05' W 150°45'0 0.0 1016.8 8.2
2012-Jun-12 06:55N 55°05' W 150°45'0 0.0 1016.7 8.2
2012-Jun-12 05:55N 55°05' W 150°45'0 0.0 1016.3 8.3
2012-Jun-12 05:54N 55°05' W 150°45'2 1.8 1016.3 8.3
2012-Jun-12 04:55N 55°06' W 150°43'2105.7 1016.2 8.3
2012-Jun-12 04:54N 55°05' W 150°45'2 1.8 1016.2 8.3
2012-Jun-12 03:54N 55°06' W 150°43'0 0.1 1016.3 8.3
2012-Jun-12 02:54N 55°06' W 150°43'1 1.5 1016.3 8.3
2012-Jun-12 01:55N 55°05' W 150°42'0 0.0 1016.3 8.3
2012-Jun-12 00:56N 55°05' W 150°42'2115.3 1016.3 8.3
2012-Jun-12 00:55N 55°06' W 150°44'0 0.3 1016.3 8.3
2012-Jun-11 23:55N 55°06' W 150°45'2 1.6 1016.2 8.3
2012-Jun-11 22:55N 55°05' W 150°47'0 0.0 1015.9 8.2
2012-Jun-11 21:55N 55°05' W 150°47'0 0.0 1015.6 8.1
2012-Jun-11 21:54N 55°05' W 150°47'0 0.0 1015.6 8.1
2012-Jun-11 20:55N 55°05' W 150°47'2135.6 1015.3 8.1
2012-Jun-11 20:54N 55°07' W 150°49'0 0.0 1015.3 8.1
2012-Jun-11 19:54N 55°07' W 150°49'0 0.0 1015.0 8.0
2012-Jun-11 18:55N 55°07' W 150°49'2114.3 1014.9 8.0
2012-Jun-11 18:54N 55°05' W 150°48'0 0.0 1014.9 8.0
2012-Jun-11 17:56N 55°05' W 150°48'0 0.0 1014.7 8.0
2012-Jun-11 17:55N 55°05' W 150°48'3 2.7 1014.7 8.0
2012-Jun-11 16:55N 55°06' W 150°53'1 0.5 1014.6 8.0
2012-Jun-11 14:55N 55°06' W 150°51'0 0.0 1014.3 8.0
2012-Jun-11 13:54N 55°06' W 150°51'0 0.0 1014.3 8.0
2012-Jun-11 12:54N 55°06' W 150°51'1 0.4 1014.3 8.0
2012-Jun-11 10:55N 55°06' W 150°52'0 0.0 1014.4 8.1
2012-Jun-11 09:55N 55°06' W 150°52'8 8.0 1014.4 8.1
2012-Jun-11 08:55N 55°10' W 151°05'7 6.9 1014.4 8.1
2012-Jun-11 07:54N 55°07' W 150°54'1 1.1 1014.4 8.1
2012-Jun-11 06:54N 55°07' W 150°52'2 1.7 1014.2 8.2
2012-Jun-11 05:55N 55°08' W 150°55'0 0.0 1013.8 8.2
2012-Jun-11 05:54N 55°08' W 150°55'0 0.2 1013.8 8.2
2012-Jun-11 04:56N 55°08' W 150°55'0 0.0 1013.6 8.3
2012-Jun-11 04:55N 55°08' W 150°55'1 1.3 1013.6 8.3
2012-Jun-11 03:55N 55°08' W 150°57'0 0.3 1013.4 8.3
2012-Jun-11 02:55N 55°08' W 150°57'0 0.0 1013.4 8.3
2012-Jun-11 02:54N 55°08' W 150°57'1 1.0 1013.4 8.3
2012-Jun-11 01:55N 55°09' W 150°58'1 0.7 1013.5 8.3
2012-Jun-11 00:55N 55°09' W 150°59'0 0.0 1013.5 8.2
2012-Jun-11 00:54N 55°09' W 150°59'0 0.2 1013.5 8.2
2012-Jun-10 23:54N 55°09' W 150°59'1 0.5 1013.4 8.2
2012-Jun-10 22:54N 55°09' W 150°60'028.9 1013.2 8.1
2012-Jun-10 22:53N 55°09' W 150°59'1 1.4 1013.2 8.1
2012-Jun-10 21:55N 55°10' W 150°60'0 0.0 1013.0 8.1
2012-Jun-10 21:54N 55°10' W 150°60'0 0.4 1013.0 8.1
2012-Jun-10 20:56N 55°10' W 151°00'0 0.0 1012.8 8.0
2012-Jun-10 20:55N 55°10' W 151°00'0 0.2 1012.8 8.0
2012-Jun-10 19:56N 55°10' W 151°00'027.2 1012.8 8.0
2012-Jun-10 19:55N 55°10' W 151°00'0 0.2 1012.8 8.0
2012-Jun-10 17:54N 55°11' W 151°00'1 1.0 1012.4 8.0
2012-Jun-10 16:55N 55°12' W 151°01'298.3 1012.2 8.1
2012-Jun-10 16:54N 55°11' W 151°04'2 1.8 1012.2 8.1
2012-Jun-10 15:55N 55°12' W 151°01'0 0.0 1012.2 8.1
2012-Jun-10 15:54N 55°12' W 151°01'0 0.3 1012.2 8.1
2012-Jun-10 14:55N 55°12' W 151°02'0 0.2 1012.2 8.1
2012-Jun-10 13:55N 55°12' W 151°02'0 0.4 1012.1 8.1
2012-Jun-10 12:55N 55°12' W 151°01'012.8 1012.3 8.1
2012-Jun-10 12:54N 55°12' W 151°02'0 0.1 1012.3 8.1
2012-Jun-10 11:55N 55°12' W 151°02'1 0.5 1012.5 8.1
2012-Jun-10 10:54N 55°13' W 151°01'1 0.6 1012.9 8.0
2012-Jun-10 09:53N 55°12' W 151°00'2 1.7 1013.2 8.1
2012-Jun-10 08:55N 55°14' W 151°02'020.7 1013.5 8.1
2012-Jun-10 08:54N 55°14' W 151°02'0 0.2 1013.5 8.1
2012-Jun-10 06:55N 55°14' W 151°02'0 0.3 1014.1 8.2
2012-Jun-10 05:54N 55°14' W 151°02'0 0.4 1014.0 8.2
2012-Jun-10 04:54N 55°14' W 151°01'0 0.3 1014.1 8.2
2012-Jun-10 03:54N 55°14' W 151°01'0 0.2 1014.1 8.2
2012-Jun-10 02:55N 55°14' W 151°01'0 0.0 1014.5 8.3
2012-Jun-10 02:54N 55°14' W 151°01'0 0.3 1014.5 8.3
2012-Jun-10 01:55N 55°14' W 151°01'1 0.6 1014.8 8.3
2012-Jun-10 00:55N 55°14' W 151°00'0 0.0 1015.2 8.3
2012-Jun-10 00:54N 55°14' W 151°00'0 0.4 1015.2 8.3
2012-Jun-09 23:55N 55°14' W 151°00'0 0.5 1015.4 8.3
2012-Jun-09 22:55N 55°15' W 151°00'025.0 1015.5 8.2
2012-Jun-09 22:54N 55°15' W 151°01'0 0.1 1015.5 8.2
2012-Jun-09 21:55N 55°15' W 151°01'0 0.0 1015.8 8.1
2012-Jun-09 21:54N 55°15' W 151°01'0 0.5 1015.8 8.1
2012-Jun-09 20:54N 55°15' W 151°01'1 0.8 1015.8 8.1
2012-Jun-09 19:55N 55°15' W 151°00'172.5 1016.1 8.1
2012-Jun-09 19:54N 55°15' W 151°02'1 0.7 1016.1 8.1
2012-Jun-09 18:56N 55°15' W 151°01'143.2 1016.2 8.1
2012-Jun-09 18:55N 55°15' W 151°02'0 0.2 1016.2 8.1
2012-Jun-09 17:56N 55°15' W 151°02'0 0.0 1016.3 8.1
2012-Jun-09 17:55N 55°15' W 151°02'0 0.5 1016.3 8.1
2012-Jun-09 16:55N 55°15' W 151°02'0 0.0 1016.7 8.0
2012-Jun-09 16:54N 55°15' W 151°02'0 0.2 1016.7 8.0
2012-Jun-09 15:55N 55°15' W 151°02'132.2 1016.6 8.0
2012-Jun-09 15:54N 55°15' W 151°03'1 0.8 1016.6 8.0
2012-Jun-09 14:55N 55°15' W 151°02'016.8 1016.6 8.0
2012-Jun-09 14:54N 55°14' W 151°01'0 0.0 1016.6 8.0
2012-Jun-09 13:55N 55°14' W 151°01'0 0.3 1016.8 8.0
2012-Jun-09 12:55N 55°14' W 151°01'0 0.2 1016.8 8.0
2012-Jun-09 11:55N 55°15' W 151°01'0 0.0 1017.1 8.0
2012-Jun-09 11:54N 55°15' W 151°01'1 0.7 1017.1 8.0
2012-Jun-09 10:55N 55°15' W 151°01'1 0.9 1017.3 8.0
2012-Jun-09 09:54N 55°16' W 151°00'0 0.0 1017.6 8.1
2012-Jun-09 08:54N 55°16' W 151°00'2 1.1 1017.7 8.1
2012-Jun-09 06:55N 55°15' W 151°03'0 0.0 1017.8 8.2
2012-Jun-09 06:54N 55°15' W 151°03'1 0.9 1017.8 8.2
2012-Jun-09 05:55N 55°15' W 151°05'0 0.0 1017.6 8.2
2012-Jun-09 04:55N 55°15' W 151°05'0 0.1 1017.5 8.2
2012-Jun-09 03:55N 55°14' W 151°04'0 7.2 1017.4 8.2
2012-Jun-09 03:54N 55°14' W 151°04'0 0.3 1017.4 8.2
2012-Jun-09 02:55N 55°14' W 151°04'0 0.0 1017.2 8.3
2012-Jun-09 02:54N 55°14' W 151°04'0 0.1 1017.2 8.3
2012-Jun-09 01:55N 55°14' W 151°04'0 3.6 1017.3 8.3
2012-Jun-09 01:54N 55°14' W 151°04'0 0.5 1017.3 8.3
2012-Jun-09 00:55N 55°15' W 151°04'0 0.0 1017.2 8.3
2012-Jun-09 00:54N 55°15' W 151°04'1 0.8 1017.2 8.3
2012-Jun-08 23:56N 55°15' W 151°04'123.5 1016.9 8.3
2012-Jun-08 23:54N 55°14' W 151°04'1 0.8 1016.9 8.3
2012-Jun-08 22:55N 55°15' W 151°04'0 0.3 1016.9 8.2
2012-Jun-08 21:55N 55°15' W 151°05'1 0.6 1016.7 8.2
2012-Jun-08 20:55N 55°16' W 151°06'1 0.9 1016.3 8.1
2012-Jun-08 19:55N 55°16' W 151°07'020.3 1016.1 8.0
2012-Jun-08 19:54N 55°16' W 151°07'2 1.6 1016.1 8.0
2012-Jun-08 18:55N 55°16' W 151°10'152.3 1015.8 8.0
2012-Jun-08 18:54N 55°16' W 151°08'1 1.1 1015.8 8.0
2012-Jun-08 17:54N 55°16' W 151°10'1 0.8 1015.5 8.0
2012-Jun-08 16:55N 55°15' W 151°11'0 7.1 1015.3 8.1
2012-Jun-08 16:54N 55°15' W 151°11'0 0.5 1015.3 8.1
2012-Jun-08 15:56N 55°15' W 151°10'0 0.0 1015.1 8.1
2012-Jun-08 15:55N 55°15' W 151°10'1 1.1 1015.1 8.1
2012-Jun-08 14:55N 55°16' W 151°12'1 0.3 1015.0 8.1
2012-Jun-08 11:54N 55°16' W 151°13'3 1.4 1015.5 8.3
2012-Jun-08 09:55N 55°18' W 151°17'1 0.3 1015.8 8.4
2012-Jun-08 07:55N 55°18' W 151°18'0 0.0 1016.0 8.4
2012-Jun-08 06:55N 55°18' W 151°18'0 0.4 1016.0 8.4
2012-Jun-08 05:55N 55°18' W 151°18'0 8.3 1016.0 8.5
2012-Jun-08 05:54N 55°18' W 151°19'0 0.2 1016.0 8.5
2012-Jun-08 04:54N 55°18' W 151°19'0 0.5 1016.1 8.6
2012-Jun-08 03:55N 55°18' W 151°19'0 0.4 1016.2 8.7
2012-Jun-08 02:56N 55°18' W 151°19'0 0.0 1016.3 8.8
2012-Jun-08 02:55N 55°18' W 151°19'1 0.8 1016.3 8.8
2012-Jun-08 01:56N 55°18' W 151°18'0 0.0 1016.4 9.0
2012-Jun-08 01:55N 55°18' W 151°18'2 1.9 1016.4 9.0
2012-Jun-08 00:55N 55°19' W 151°21'1 1.3 1016.4 9.2
2012-Jun-07 23:55N 55°19' W 151°23'2111.5 1016.4 9.6
2012-Jun-07 23:54N 55°20' W 151°20'3 2.9 1016.4 9.6
2012-Jun-07 22:55N 55°18' W 151°23'0 0.0 1016.7 10.0
2012-Jun-07 22:54N 55°18' W 151°23'2 2.2 1016.7 10.0
2012-Jun-07 21:54N 55°20' W 151°25'0 0.0 1016.9 9.7
2012-Jun-07 20:55N 55°20' W 151°25'0 0.0 1017.0 9.2
2012-Jun-07 20:54N 55°20' W 151°25'0 0.2 1017.0 9.2
2012-Jun-07 19:56N 55°20' W 151°25'017.9 1016.9 8.8
2012-Jun-07 19:55N 55°19' W 151°24'0 0.0 1016.9 8.8
2012-Jun-07 19:54N 55°19' W 151°24'0 0.3 1016.9 8.8
2012-Jun-07 18:56N 55°20' W 151°25'157.0 1016.6 8.3
2012-Jun-07 18:55N 55°19' W 151°26'1 0.8 1016.6 8.3
2012-Jun-07 17:55N 55°19' W 151°25'1 1.1 1016.6 8.1
2012-Jun-07 16:55N 55°19' W 151°27'1 0.5 1016.7 8.0
2012-Jun-07 15:55N 55°20' W 151°26'147.0 1016.4 7.9
2012-Jun-07 15:54N 55°19' W 151°27'1 0.8 1016.4 7.9
2012-Jun-07 14:55N 55°20' W 151°26'0 0.0 1016.2 7.9
2012-Jun-07 14:54N 55°20' W 151°26'0 0.4 1016.2 7.9
2012-Jun-07 13:55N 55°20' W 151°26'0 9.5 1015.9 7.9
2012-Jun-07 13:54N 55°20' W 151°26'1 0.8 1015.9 7.9
2012-Jun-07 12:54N 55°21' W 151°25'0 0.0 1015.8 7.9
2012-Jun-07 11:55N 55°21' W 151°25'2 1.8 1015.7 7.9
2012-Jun-07 10:55N 55°22' W 151°26'0 0.0 1015.7 7.9
2012-Jun-07 09:55N 55°22' W 151°26'0 0.0 1015.9 8.0
2012-Jun-07 07:55N 55°22' W 151°26'183.7 1016.1 8.0
2012-Jun-07 07:54N 55°23' W 151°28'0 0.0 1016.1 8.0
2012-Jun-07 06:55N 55°23' W 151°28'0 0.0 1015.9 8.0
2012-Jun-07 05:55N 55°23' W 151°28'0 0.5 1015.8 8.0
2012-Jun-07 04:56N 55°23' W 151°27'0 0.0 1015.6 8.0
2012-Jun-07 04:55N 55°23' W 151°27'1 0.8 1015.6 8.0
2012-Jun-07 03:55N 55°23' W 151°29'0 0.0 1015.4 8.1
2012-Jun-07 03:54N 55°23' W 151°29'0 0.3 1015.4 8.1
2012-Jun-07 02:55N 55°23' W 151°28'2106.0 1015.3 8.1
2012-Jun-07 02:54N 55°22' W 151°30'2 2.4 1015.3 8.1
2012-Jun-07 01:55N 55°23' W 151°27'1 1.0 1015.1 8.2
2012-Jun-07 00:55N 55°23' W 151°28'0 0.0 1015.1 8.1
2012-Jun-07 00:54N 55°23' W 151°28'2 2.3 1015.1 8.1
2012-Jun-06 23:55N 55°25' W 151°26'169.4 1015.0 8.0
2012-Jun-06 23:54N 55°24' W 151°26'1 0.5 1015.0 8.0
2012-Jun-06 22:54N 55°24' W 151°26'2 1.6 1015.0 7.9
2012-Jun-06 21:55N 55°26' W 151°28'291.8 1015.0 7.7
2012-Jun-06 21:54N 55°24' W 151°26'1 1.2 1015.0 7.7
2012-Jun-06 20:56N 55°26' W 151°27'0 0.0 1014.9 7.6
2012-Jun-06 20:55N 55°26' W 151°27'0 0.4 1014.9 7.6
2012-Jun-06 19:56N 55°26' W 151°28'0 0.0 1014.7 7.5
2012-Jun-06 19:55N 55°26' W 151°28'1 1.1 1014.7 7.5
2012-Jun-06 18:55N 55°26' W 151°29'0 0.0 1014.6 7.4
2012-Jun-06 17:55N 55°26' W 151°29'0 0.2 1014.5 7.4
2012-Jun-06 16:55N 55°26' W 151°30'0 7.1 1014.5 7.3
2012-Jun-06 16:54N 55°26' W 151°30'1 0.5 1014.5 7.3
2012-Jun-06 15:54N 55°27' W 151°30'1 1.3 1014.2 7.4
2012-Jun-06 14:55N 55°26' W 151°29'1 1.0 1013.9 7.4
2012-Jun-06 13:56N 55°26' W 151°28'0 0.0 1013.7 7.4
2012-Jun-06 13:55N 55°26' W 151°28'1 0.5 1013.7 7.4
2012-Jun-06 12:55N 55°27' W 151°28'1 0.8 1013.6 7.4
2012-Jun-06 11:55N 55°27' W 151°27'0 0.0 1013.4 7.4
2012-Jun-06 11:54N 55°27' W 151°27'1 0.4 1013.4 7.4
2012-Jun-06 08:54N 55°29' W 151°26'0 0.0 1013.1 7.4
2012-Jun-06 08:53N 55°29' W 151°26'0 0.4 1013.1 7.4
2012-Jun-06 07:55N 55°29' W 151°27'0 0.0 1013.1 7.4
2012-Jun-06 07:54N 55°29' W 151°27'0 0.2 1013.1 7.4
2012-Jun-06 06:55N 55°28' W 151°27'0 0.4 1013.2 7.5
2012-Jun-06 05:55N 55°29' W 151°27'0 0.2 1012.9 7.5
2012-Jun-06 04:54N 55°29' W 151°26'1 0.7 1012.6 7.5
2012-Jun-06 03:55N 55°28' W 151°27'0 4.1 1012.4 7.6
2012-Jun-06 03:54N 55°28' W 151°27'0 0.3 1012.4 7.6
2012-Jun-06 02:54N 55°28' W 151°27'1 1.2 1012.2 7.6
2012-Jun-06 01:55N 55°27' W 151°26'0 0.0 1012.1 7.6
2012-Jun-06 01:54N 55°27' W 151°26'0 0.1 1012.1 7.6
2012-Jun-06 00:56N 55°27' W 151°26'0 0.0 1012.2 7.6
2012-Jun-06 00:55N 55°27' W 151°26'0 0.0 1012.2 7.6
2012-Jun-06 00:54N 55°27' W 151°26'2 2.1 1012.2 7.6
2012-Jun-05 23:56N 55°28' W 151°22'0 0.0 1012.1 7.5
2012-Jun-05 23:55N 55°28' W 151°22'1 0.8 1012.1 7.5
2012-Jun-05 22:55N 55°27' W 151°24'0 0.0 1012.0 7.4
2012-Jun-05 22:54N 55°27' W 151°24'1 1.3 1012.0 7.4
2012-Jun-05 21:55N 55°28' W 151°22'0 0.0 1012.2 7.3
2012-Jun-05 21:54N 55°28' W 151°22'0 0.3 1012.2 7.3
2012-Jun-05 20:55N 55°28' W 151°22'0 0.0 1012.3 7.2
2012-Jun-05 20:54N 55°28' W 151°22'0 0.0 1012.3 7.2
2012-Jun-05 19:54N 55°28' W 151°22'1 0.7 1012.4 7.2
2012-Jun-05 17:55N 55°29' W 151°24'1 0.6 1012.9 7.2
2012-Jun-05 16:55N 55°29' W 151°25'0 0.1 1013.2 7.2
2012-Jun-05 15:55N 55°29' W 151°24'1 1.1 1012.9 7.1
2012-Jun-05 14:55N 55°28' W 151°25'1 0.5 1012.7 7.1
2012-Jun-05 13:55N 55°27' W 151°26'0 0.0 1012.9 7.1
2012-Jun-05 13:54N 55°27' W 151°26'2 0.7 1012.9 7.1
2012-Jun-05 10:56N 55°27' W 151°22'1 0.6 1013.2 7.3
2012-Jun-05 08:55N 55°27' W 151°20'0 0.0 1014.0 7.4
2012-Jun-05 08:54N 55°27' W 151°20'1 0.3 1014.0 7.4
2012-Jun-05 06:54N 55°27' W 151°21'0 0.4 1014.7 7.6
2012-Jun-05 05:55N 55°27' W 151°22'0 0.0 1015.0 7.6
2012-Jun-05 05:54N 55°27' W 151°22'0 0.3 1015.0 7.6
2012-Jun-05 04:55N 55°27' W 151°22'0 0.4 1015.4 7.6
2012-Jun-05 03:56N 55°27' W 151°23'0 0.0 1015.7 7.6
2012-Jun-05 03:55N 55°27' W 151°23'1 0.4 1015.7 7.6
2012-Jun-05 01:55N 55°26' W 151°23'019.0 1016.3 7.5
2012-Jun-05 01:54N 55°26' W 151°23'0 0.4 1016.3 7.5
2012-Jun-05 00:55N 55°25' W 151°23'0 0.0 1016.7 7.6
2012-Jun-05 00:54N 55°25' W 151°23'   1016.7 7.6

Dump ship's entire track history

sailing weather and tide predictions

Buoy 46658